sensor_id;sensor_type;location;lat;lon;timestamp;P1;durP1;ratioP1;P2;durP2;ratioP2
67063;SDS011;58476;48.072;11.970;2023-04-06T00:01:59;11.35;;;1.70;;
67063;SDS011;58476;48.072;11.970;2023-04-06T00:04:25;18.73;;;2.08;;
67063;SDS011;58476;48.072;11.970;2023-04-06T00:06:50;7.57;;;2.00;;
67063;SDS011;58476;48.072;11.970;2023-04-06T00:09:15;9.15;;;1.75;;
67063;SDS011;58476;48.072;11.970;2023-04-06T00:11:40;10.43;;;2.03;;
67063;SDS011;58476;48.072;11.970;2023-04-06T00:14:06;8.30;;;2.22;;
67063;SDS011;58476;48.072;11.970;2023-04-06T00:16:31;13.68;;;2.20;;
67063;SDS011;58476;48.072;11.970;2023-04-06T00:18:57;26.48;;;3.03;;
67063;SDS011;58476;48.072;11.970;2023-04-06T00:21:22;15.88;;;2.72;;
67063;SDS011;58476;48.072;11.970;2023-04-06T00:23:47;9.88;;;1.88;;
67063;SDS011;58476;48.072;11.970;2023-04-06T00:26:13;16.40;;;2.33;;
67063;SDS011;58476;48.072;11.970;2023-04-06T00:28:43;9.23;;;2.03;;
67063;SDS011;58476;48.072;11.970;2023-04-06T00:31:08;9.63;;;1.52;;
67063;SDS011;58476;48.072;11.970;2023-04-06T00:33:34;12.35;;;2.00;;
67063;SDS011;58476;48.072;11.970;2023-04-06T00:35:59;7.57;;;1.60;;
67063;SDS011;58476;48.072;11.970;2023-04-06T00:38:24;6.88;;;1.80;;
67063;SDS011;58476;48.072;11.970;2023-04-06T00:40:50;11.85;;;1.70;;
67063;SDS011;58476;48.072;11.970;2023-04-06T00:43:15;9.95;;;1.88;;
67063;SDS011;58476;48.072;11.970;2023-04-06T00:45:41;7.50;;;2.30;;
67063;SDS011;58476;48.072;11.970;2023-04-06T00:48:07;13.30;;;2.88;;
67063;SDS011;58476;48.072;11.970;2023-04-06T00:50:33;6.22;;;2.20;;
67063;SDS011;58476;48.072;11.970;2023-04-06T00:52:59;10.23;;;1.92;;
67063;SDS011;58476;48.072;11.970;2023-04-06T00:55:28;8.55;;;1.90;;
67063;SDS011;58476;48.072;11.970;2023-04-06T00:57:56;6.05;;;2.30;;
67063;SDS011;58476;48.072;11.970;2023-04-06T01:00:23;4.53;;;1.45;;
67063;SDS011;58476;48.072;11.970;2023-04-06T01:02:54;2.47;;;1.48;;
67063;SDS011;58476;48.072;11.970;2023-04-06T01:05:23;8.68;;;1.50;;
67063;SDS011;58476;48.072;11.970;2023-04-06T01:07:55;7.07;;;1.85;;
67063;SDS011;58476;48.072;11.970;2023-04-06T01:10:24;5.28;;;1.40;;
67063;SDS011;58476;48.072;11.970;2023-04-06T01:12:55;6.78;;;1.90;;
67063;SDS011;58476;48.072;11.970;2023-04-06T01:15:39;4.82;;;1.60;;
67063;SDS011;58476;48.072;11.970;2023-04-06T01:18:07;8.45;;;1.42;;
67063;SDS011;58476;48.072;11.970;2023-04-06T01:20:34;4.63;;;1.33;;
67063;SDS011;58476;48.072;11.970;2023-04-06T01:23:01;4.15;;;1.33;;
67063;SDS011;58476;48.072;11.970;2023-04-06T01:25:27;3.67;;;1.40;;
67063;SDS011;58476;48.072;11.970;2023-04-06T01:28:06;7.20;;;1.70;;
67063;SDS011;58476;48.072;11.970;2023-04-06T01:30:50;6.47;;;1.70;;
67063;SDS011;58476;48.072;11.970;2023-04-06T01:33:36;7.50;;;1.63;;
67063;SDS011;58476;48.072;11.970;2023-04-06T01:36:05;5.60;;;1.70;;
67063;SDS011;58476;48.072;11.970;2023-04-06T01:38:31;10.43;;;2.03;;
67063;SDS011;58476;48.072;11.970;2023-04-06T01:40:56;4.13;;;1.48;;
67063;SDS011;58476;48.072;11.970;2023-04-06T01:43:24;3.53;;;1.42;;
67063;SDS011;58476;48.072;11.970;2023-04-06T01:46:15;2.55;;;1.38;;
67063;SDS011;58476;48.072;11.970;2023-04-06T01:48:43;3.22;;;1.30;;
67063;SDS011;58476;48.072;11.970;2023-04-06T01:51:16;3.90;;;1.40;;
67063;SDS011;58476;48.072;11.970;2023-04-06T01:53:50;1.88;;;1.20;;
67063;SDS011;58476;48.072;11.970;2023-04-06T01:56:17;5.07;;;1.30;;
67063;SDS011;58476;48.072;11.970;2023-04-06T01:58:51;10.48;;;1.40;;
67063;SDS011;58476;48.072;11.970;2023-04-06T02:01:17;2.78;;;1.35;;
67063;SDS011;58476;48.072;11.970;2023-04-06T02:03:52;2.85;;;1.30;;
67063;SDS011;58476;48.072;11.970;2023-04-06T02:06:18;2.85;;;1.33;;
67063;SDS011;58476;48.072;11.970;2023-04-06T02:08:43;3.03;;;1.30;;
67063;SDS011;58476;48.072;11.970;2023-04-06T02:11:08;2.05;;;1.58;;
67063;SDS011;58476;48.072;11.970;2023-04-06T02:13:41;3.58;;;1.30;;
67063;SDS011;58476;48.072;11.970;2023-04-06T02:16:08;4.55;;;1.35;;
67063;SDS011;58476;48.072;11.970;2023-04-06T02:18:33;2.28;;;1.02;;
67063;SDS011;58476;48.072;11.970;2023-04-06T02:20:58;2.65;;;1.38;;
67063;SDS011;58476;48.072;11.970;2023-04-06T02:23:24;3.17;;;1.50;;
67063;SDS011;58476;48.072;11.970;2023-04-06T02:25:49;3.35;;;1.27;;
67063;SDS011;58476;48.072;11.970;2023-04-06T02:28:14;2.50;;;1.13;;
67063;SDS011;58476;48.072;11.970;2023-04-06T02:30:40;2.10;;;1.40;;
67063;SDS011;58476;48.072;11.970;2023-04-06T02:33:05;4.28;;;1.20;;
67063;SDS011;58476;48.072;11.970;2023-04-06T02:35:38;2.60;;;1.30;;
67063;SDS011;58476;48.072;11.970;2023-04-06T02:38:04;4.53;;;1.40;;
67063;SDS011;58476;48.072;11.970;2023-04-06T02:40:29;2.35;;;1.13;;
67063;SDS011;58476;48.072;11.970;2023-04-06T02:42:56;2.92;;;1.40;;
67063;SDS011;58476;48.072;11.970;2023-04-06T02:45:27;1.88;;;1.20;;
67063;SDS011;58476;48.072;11.970;2023-04-06T02:47:53;1.65;;;1.23;;
67063;SDS011;58476;48.072;11.970;2023-04-06T02:50:19;2.55;;;1.15;;
67063;SDS011;58476;48.072;11.970;2023-04-06T02:52:52;1.45;;;1.30;;
67063;SDS011;58476;48.072;11.970;2023-04-06T02:55:18;1.40;;;1.20;;
67063;SDS011;58476;48.072;11.970;2023-04-06T02:57:43;1.80;;;1.20;;
67063;SDS011;58476;48.072;11.970;2023-04-06T03:00:09;1.83;;;1.15;;
67063;SDS011;58476;48.072;11.970;2023-04-06T03:02:38;3.75;;;1.33;;
67063;SDS011;58476;48.072;11.970;2023-04-06T03:05:08;2.88;;;1.25;;
67063;SDS011;58476;48.072;11.970;2023-04-06T03:07:37;1.25;;;1.10;;
67063;SDS011;58476;48.072;11.970;2023-04-06T03:10:04;2.13;;;1.10;;
67063;SDS011;58476;48.072;11.970;2023-04-06T03:12:31;1.60;;;1.17;;
67063;SDS011;58476;48.072;11.970;2023-04-06T03:15:12;3.78;;;1.30;;
67063;SDS011;58476;48.072;11.970;2023-04-06T03:17:42;1.27;;;1.10;;
67063;SDS011;58476;48.072;11.970;2023-04-06T03:20:13;2.88;;;1.15;;
67063;SDS011;58476;48.072;11.970;2023-04-06T03:22:39;3.75;;;1.30;;
67063;SDS011;58476;48.072;11.970;2023-04-06T03:25:06;6.70;;;1.50;;
67063;SDS011;58476;48.072;11.970;2023-04-06T03:27:32;7.15;;;1.25;;
67063;SDS011;58476;48.072;11.970;2023-04-06T03:29:58;7.15;;;3.17;;
67063;SDS011;58476;48.072;11.970;2023-04-06T03:32:30;4.13;;;1.45;;
67063;SDS011;58476;48.072;11.970;2023-04-06T03:34:55;6.05;;;1.42;;
67063;SDS011;58476;48.072;11.970;2023-04-06T03:37:20;7.10;;;1.48;;
67063;SDS011;58476;48.072;11.970;2023-04-06T03:39:51;4.05;;;1.33;;
67063;SDS011;58476;48.072;11.970;2023-04-06T03:42:20;8.20;;;2.42;;
67063;SDS011;58476;48.072;11.970;2023-04-06T03:44:52;6.35;;;1.40;;
67063;SDS011;58476;48.072;11.970;2023-04-06T03:47:18;15.32;;;2.10;;
67063;SDS011;58476;48.072;11.970;2023-04-06T03:49:44;6.72;;;2.20;;
67063;SDS011;58476;48.072;11.970;2023-04-06T03:52:11;6.15;;;1.40;;
67063;SDS011;58476;48.072;11.970;2023-04-06T03:54:36;14.68;;;1.95;;
67063;SDS011;58476;48.072;11.970;2023-04-06T03:57:02;14.65;;;2.05;;
67063;SDS011;58476;48.072;11.970;2023-04-06T03:59:28;26.50;;;2.38;;
67063;SDS011;58476;48.072;11.970;2023-04-06T04:01:53;14.85;;;1.83;;
67063;SDS011;58476;48.072;11.970;2023-04-06T04:04:18;34.95;;;4.03;;
67063;SDS011;58476;48.072;11.970;2023-04-06T04:06:44;19.65;;;2.38;;
67063;SDS011;58476;48.072;11.970;2023-04-06T04:09:09;16.92;;;1.90;;
67063;SDS011;58476;48.072;11.970;2023-04-06T04:11:34;13.95;;;1.90;;
67063;SDS011;58476;48.072;11.970;2023-04-06T04:14:00;11.32;;;2.03;;
67063;SDS011;58476;48.072;11.970;2023-04-06T04:16:25;14.73;;;1.60;;
67063;SDS011;58476;48.072;11.970;2023-04-06T04:18:50;11.20;;;2.13;;
67063;SDS011;58476;48.072;11.970;2023-04-06T04:21:16;12.60;;;2.53;;
67063;SDS011;58476;48.072;11.970;2023-04-06T04:23:41;22.45;;;1.90;;
67063;SDS011;58476;48.072;11.970;2023-04-06T04:26:07;9.43;;;1.50;;
67063;SDS011;58476;48.072;11.970;2023-04-06T04:28:33;11.88;;;1.73;;
67063;SDS011;58476;48.072;11.970;2023-04-06T04:30:58;18.05;;;2.20;;
67063;SDS011;58476;48.072;11.970;2023-04-06T04:33:24;14.07;;;1.77;;
67063;SDS011;58476;48.072;11.970;2023-04-06T04:35:52;15.02;;;3.05;;
67063;SDS011;58476;48.072;11.970;2023-04-06T04:38:20;6.30;;;1.80;;
67063;SDS011;58476;48.072;11.970;2023-04-06T04:40:50;12.23;;;2.80;;
67063;SDS011;58476;48.072;11.970;2023-04-06T04:43:15;8.55;;;2.80;;
67063;SDS011;58476;48.072;11.970;2023-04-06T04:45:41;14.50;;;1.77;;
67063;SDS011;58476;48.072;11.970;2023-04-06T04:48:15;14.18;;;2.00;;
67063;SDS011;58476;48.072;11.970;2023-04-06T04:50:49;14.70;;;2.75;;
67063;SDS011;58476;48.072;11.970;2023-04-06T04:53:16;9.00;;;1.50;;
67063;SDS011;58476;48.072;11.970;2023-04-06T04:55:43;11.95;;;1.70;;
67063;SDS011;58476;48.072;11.970;2023-04-06T04:58:10;7.22;;;1.50;;
67063;SDS011;58476;48.072;11.970;2023-04-06T05:00:46;8.95;;;1.50;;
67063;SDS011;58476;48.072;11.970;2023-04-06T05:03:14;13.32;;;2.03;;
67063;SDS011;58476;48.072;11.970;2023-04-06T05:05:47;9.85;;;1.90;;
67063;SDS011;58476;48.072;11.970;2023-04-06T05:08:15;11.48;;;1.52;;
67063;SDS011;58476;48.072;11.970;2023-04-06T05:10:44;8.50;;;1.60;;
67063;SDS011;58476;48.072;11.970;2023-04-06T05:13:10;14.38;;;1.90;;
67063;SDS011;58476;48.072;11.970;2023-04-06T05:15:35;4.28;;;1.92;;
67063;SDS011;58476;48.072;11.970;2023-04-06T05:18:08;9.82;;;3.05;;
67063;SDS011;58476;48.072;11.970;2023-04-06T05:20:34;6.90;;;1.65;;
67063;SDS011;58476;48.072;11.970;2023-04-06T05:23:00;9.10;;;1.70;;
67063;SDS011;58476;48.072;11.970;2023-04-06T05:25:26;8.90;;;2.55;;
67063;SDS011;58476;48.072;11.970;2023-04-06T05:27:55;6.03;;;1.80;;
67063;SDS011;58476;48.072;11.970;2023-04-06T05:30:30;6.00;;;1.70;;
67063;SDS011;58476;48.072;11.970;2023-04-06T05:32:56;7.60;;;1.77;;
67063;SDS011;58476;48.072;11.970;2023-04-06T05:35:24;6.45;;;2.25;;
67063;SDS011;58476;48.072;11.970;2023-04-06T05:37:53;6.15;;;2.63;;
67063;SDS011;58476;48.072;11.970;2023-04-06T05:40:22;4.68;;;1.80;;
67063;SDS011;58476;48.072;11.970;2023-04-06T05:42:48;2.13;;;1.58;;
67063;SDS011;58476;48.072;11.970;2023-04-06T05:45:14;5.63;;;1.58;;
67063;SDS011;58476;48.072;11.970;2023-04-06T05:47:39;2.67;;;1.58;;
67063;SDS011;58476;48.072;11.970;2023-04-06T05:50:16;2.47;;;1.60;;
67063;SDS011;58476;48.072;11.970;2023-04-06T05:52:41;8.98;;;2.75;;
67063;SDS011;58476;48.072;11.970;2023-04-06T05:55:07;3.85;;;1.58;;
67063;SDS011;58476;48.072;11.970;2023-04-06T05:57:32;7.95;;;1.83;;
67063;SDS011;58476;48.072;11.970;2023-04-06T05:59:58;4.70;;;2.10;;
67063;SDS011;58476;48.072;11.970;2023-04-06T06:02:37;4.45;;;1.73;;
67063;SDS011;58476;48.072;11.970;2023-04-06T06:05:03;4.13;;;1.95;;
67063;SDS011;58476;48.072;11.970;2023-04-06T06:07:29;6.13;;;2.00;;
67063;SDS011;58476;48.072;11.970;2023-04-06T06:09:59;2.83;;;1.90;;
67063;SDS011;58476;48.072;11.970;2023-04-06T06:12:29;3.05;;;1.75;;
67063;SDS011;58476;48.072;11.970;2023-04-06T06:14:55;3.33;;;2.15;;
67063;SDS011;58476;48.072;11.970;2023-04-06T06:17:22;4.45;;;1.90;;
67063;SDS011;58476;48.072;11.970;2023-04-06T06:19:49;4.60;;;1.77;;
67063;SDS011;58476;48.072;11.970;2023-04-06T06:22:15;3.80;;;1.80;;
67063;SDS011;58476;48.072;11.970;2023-04-06T06:24:44;4.55;;;1.90;;
67063;SDS011;58476;48.072;11.970;2023-04-06T06:27:10;5.93;;;1.95;;
67063;SDS011;58476;48.072;11.970;2023-04-06T06:29:37;5.40;;;1.80;;
67063;SDS011;58476;48.072;11.970;2023-04-06T06:32:02;2.85;;;1.95;;
67063;SDS011;58476;48.072;11.970;2023-04-06T06:34:28;3.17;;;1.90;;
67063;SDS011;58476;48.072;11.970;2023-04-06T06:36:56;1.77;;;1.60;;
67063;SDS011;58476;48.072;11.970;2023-04-06T06:39:22;4.30;;;2.13;;
67063;SDS011;58476;48.072;11.970;2023-04-06T06:41:49;10.18;;;1.90;;
67063;SDS011;58476;48.072;11.970;2023-04-06T06:44:14;5.13;;;1.70;;
67063;SDS011;58476;48.072;11.970;2023-04-06T06:46:40;1.90;;;1.60;;
67063;SDS011;58476;48.072;11.970;2023-04-06T06:49:05;4.18;;;1.75;;
67063;SDS011;58476;48.072;11.970;2023-04-06T06:51:31;3.53;;;1.80;;
67063;SDS011;58476;48.072;11.970;2023-04-06T06:53:56;5.68;;;1.77;;
67063;SDS011;58476;48.072;11.970;2023-04-06T06:56:21;5.70;;;1.65;;
67063;SDS011;58476;48.072;11.970;2023-04-06T06:58:48;3.78;;;1.90;;
67063;SDS011;58476;48.072;11.970;2023-04-06T07:01:13;3.28;;;1.55;;
67063;SDS011;58476;48.072;11.970;2023-04-06T07:03:39;5.28;;;2.03;;
67063;SDS011;58476;48.072;11.970;2023-04-06T07:06:04;3.03;;;1.80;;
67063;SDS011;58476;48.072;11.970;2023-04-06T07:08:30;3.22;;;1.70;;
67063;SDS011;58476;48.072;11.970;2023-04-06T07:10:55;3.75;;;1.75;;
67063;SDS011;58476;48.072;11.970;2023-04-06T07:13:20;4.07;;;1.70;;
67063;SDS011;58476;48.072;11.970;2023-04-06T07:15:46;4.38;;;1.67;;
67063;SDS011;58476;48.072;11.970;2023-04-06T07:18:11;3.88;;;1.75;;
67063;SDS011;58476;48.072;11.970;2023-04-06T07:20:37;2.20;;;1.70;;
67063;SDS011;58476;48.072;11.970;2023-04-06T07:23:02;3.45;;;1.60;;
67063;SDS011;58476;48.072;11.970;2023-04-06T07:25:28;2.67;;;1.67;;
67063;SDS011;58476;48.072;11.970;2023-04-06T07:27:54;2.75;;;1.77;;
67063;SDS011;58476;48.072;11.970;2023-04-06T07:30:20;2.25;;;1.42;;
67063;SDS011;58476;48.072;11.970;2023-04-06T07:32:45;1.95;;;1.67;;
67063;SDS011;58476;48.072;11.970;2023-04-06T07:35:11;4.28;;;1.60;;
67063;SDS011;58476;48.072;11.970;2023-04-06T07:37:36;2.80;;;1.58;;
67063;SDS011;58476;48.072;11.970;2023-04-06T07:40:02;3.25;;;1.63;;
67063;SDS011;58476;48.072;11.970;2023-04-06T07:42:28;4.90;;;1.65;;
67063;SDS011;58476;48.072;11.970;2023-04-06T07:44:54;1.75;;;1.48;;
67063;SDS011;58476;48.072;11.970;2023-04-06T07:47:19;5.18;;;1.65;;
67063;SDS011;58476;48.072;11.970;2023-04-06T07:49:45;3.20;;;1.63;;
67063;SDS011;58476;48.072;11.970;2023-04-06T07:52:10;3.15;;;1.30;;
67063;SDS011;58476;48.072;11.970;2023-04-06T07:54:36;3.42;;;1.58;;
67063;SDS011;58476;48.072;11.970;2023-04-06T07:57:01;3.72;;;1.50;;
67063;SDS011;58476;48.072;11.970;2023-04-06T07:59:27;5.80;;;1.60;;
67063;SDS011;58476;48.072;11.970;2023-04-06T08:01:52;3.15;;;1.50;;
67063;SDS011;58476;48.072;11.970;2023-04-06T08:04:17;2.97;;;1.63;;
67063;SDS011;58476;48.072;11.970;2023-04-06T08:06:43;4.50;;;1.65;;
67063;SDS011;58476;48.072;11.970;2023-04-06T08:09:08;1.75;;;1.50;;
67063;SDS011;58476;48.072;11.970;2023-04-06T08:11:33;3.88;;;1.50;;
67063;SDS011;58476;48.072;11.970;2023-04-06T08:13:59;5.97;;;1.60;;
67063;SDS011;58476;48.072;11.970;2023-04-06T08:16:24;2.15;;;1.33;;
67063;SDS011;58476;48.072;11.970;2023-04-06T08:18:49;2.80;;;1.50;;
67063;SDS011;58476;48.072;11.970;2023-04-06T08:21:15;1.42;;;1.33;;
67063;SDS011;58476;48.072;11.970;2023-04-06T08:23:40;2.40;;;1.50;;
67063;SDS011;58476;48.072;11.970;2023-04-06T08:26:05;3.38;;;1.60;;
67063;SDS011;58476;48.072;11.970;2023-04-06T08:28:31;1.80;;;1.33;;
67063;SDS011;58476;48.072;11.970;2023-04-06T08:30:56;2.53;;;1.67;;
67063;SDS011;58476;48.072;11.970;2023-04-06T08:33:21;4.97;;;1.40;;
67063;SDS011;58476;48.072;11.970;2023-04-06T08:35:47;1.98;;;1.50;;
67063;SDS011;58476;48.072;11.970;2023-04-06T08:38:12;1.85;;;1.50;;
67063;SDS011;58476;48.072;11.970;2023-04-06T08:40:38;2.03;;;1.30;;
67063;SDS011;58476;48.072;11.970;2023-04-06T08:43:06;1.60;;;1.50;;
67063;SDS011;58476;48.072;11.970;2023-04-06T08:45:33;3.40;;;1.52;;
67063;SDS011;58476;48.072;11.970;2023-04-06T08:47:58;1.92;;;1.58;;
67063;SDS011;58476;48.072;11.970;2023-04-06T08:50:24;5.40;;;1.50;;
67063;SDS011;58476;48.072;11.970;2023-04-06T08:52:50;1.60;;;1.50;;
67063;SDS011;58476;48.072;11.970;2023-04-06T08:55:15;2.13;;;1.63;;
67063;SDS011;58476;48.072;11.970;2023-04-06T08:57:42;1.45;;;1.35;;
67063;SDS011;58476;48.072;11.970;2023-04-06T09:00:07;1.40;;;1.30;;
67063;SDS011;58476;48.072;11.970;2023-04-06T09:02:37;10.88;;;2.90;;
67063;SDS011;58476;48.072;11.970;2023-04-06T09:05:04;10.00;;;2.55;;
67063;SDS011;58476;48.072;11.970;2023-04-06T09:07:29;6.25;;;2.10;;
67063;SDS011;58476;48.072;11.970;2023-04-06T09:09:55;7.20;;;2.10;;
67063;SDS011;58476;48.072;11.970;2023-04-06T09:12:24;11.32;;;2.47;;
67063;SDS011;58476;48.072;11.970;2023-04-06T09:14:50;6.50;;;2.00;;
67063;SDS011;58476;48.072;11.970;2023-04-06T09:17:21;7.90;;;2.10;;
67063;SDS011;58476;48.072;11.970;2023-04-06T09:19:48;3.85;;;1.63;;
67063;SDS011;58476;48.072;11.970;2023-04-06T09:22:13;5.32;;;1.85;;
67063;SDS011;58476;48.072;11.970;2023-04-06T09:24:43;3.90;;;1.70;;
67063;SDS011;58476;48.072;11.970;2023-04-06T09:27:13;3.47;;;1.63;;
67063;SDS011;58476;48.072;11.970;2023-04-06T09:29:39;3.50;;;1.85;;
67063;SDS011;58476;48.072;11.970;2023-04-06T09:32:06;4.93;;;1.67;;
67063;SDS011;58476;48.072;11.970;2023-04-06T09:34:33;6.13;;;1.55;;
67063;SDS011;58476;48.072;11.970;2023-04-06T09:36:59;4.45;;;1.63;;
67063;SDS011;58476;48.072;11.970;2023-04-06T09:39:24;3.90;;;1.70;;
67063;SDS011;58476;48.072;11.970;2023-04-06T09:41:51;4.57;;;1.48;;
67063;SDS011;58476;48.072;11.970;2023-04-06T09:44:18;6.20;;;1.70;;
67063;SDS011;58476;48.072;11.970;2023-04-06T09:46:44;5.57;;;2.78;;
67063;SDS011;58476;48.072;11.970;2023-04-06T09:49:10;4.93;;;1.73;;
67063;SDS011;58476;48.072;11.970;2023-04-06T09:51:40;4.18;;;1.50;;
67063;SDS011;58476;48.072;11.970;2023-04-06T09:54:09;3.28;;;1.55;;
67063;SDS011;58476;48.072;11.970;2023-04-06T09:56:47;7.85;;;1.73;;
67063;SDS011;58476;48.072;11.970;2023-04-06T09:59:21;6.00;;;1.90;;
67063;SDS011;58476;48.072;11.970;2023-04-06T10:01:56;4.90;;;1.57;;
67063;SDS011;58476;48.072;11.970;2023-04-06T10:07:09;3.90;;;1.42;;
67063;SDS011;58476;48.072;11.970;2023-04-06T10:09:35;5.82;;;1.50;;
67063;SDS011;58476;48.072;11.970;2023-04-06T10:12:05;6.80;;;1.42;;
67063;SDS011;58476;48.072;11.970;2023-04-06T10:14:34;3.92;;;1.67;;
67063;SDS011;58476;48.072;11.970;2023-04-06T10:17:00;7.20;;;1.70;;
67063;SDS011;58476;48.072;11.970;2023-04-06T10:19:27;4.10;;;1.50;;
67063;SDS011;58476;48.072;11.970;2023-04-06T10:21:59;1.95;;;1.33;;
67063;SDS011;58476;48.072;11.970;2023-04-06T10:24:27;2.88;;;1.55;;
67063;SDS011;58476;48.072;11.970;2023-04-06T10:27:02;8.13;;;1.60;;
67063;SDS011;58476;48.072;11.970;2023-04-06T10:29:28;6.45;;;1.55;;
67063;SDS011;58476;48.072;11.970;2023-04-06T10:32:07;7.63;;;1.65;;
67063;SDS011;58476;48.072;11.970;2023-04-06T10:34:35;5.40;;;1.60;;
67063;SDS011;58476;48.072;11.970;2023-04-06T10:37:10;5.47;;;1.65;;
67063;SDS011;58476;48.072;11.970;2023-04-06T10:40:40;1.65;;;1.40;;
67063;SDS011;58476;48.072;11.970;2023-04-06T10:42:43;3.35;;;1.90;;
67063;SDS011;58476;48.072;11.970;2023-04-06T10:45:18;3.72;;;1.55;;
67063;SDS011;58476;48.072;11.970;2023-04-06T10:47:44;2.55;;;1.50;;
67063;SDS011;58476;48.072;11.970;2023-04-06T10:50:11;2.67;;;1.60;;
67063;SDS011;58476;48.072;11.970;2023-04-06T10:52:40;3.20;;;1.52;;
67063;SDS011;58476;48.072;11.970;2023-04-06T10:55:05;5.78;;;1.60;;
67063;SDS011;58476;48.072;11.970;2023-04-06T10:57:33;3.65;;;1.50;;
67063;SDS011;58476;48.072;11.970;2023-04-06T10:59:58;3.67;;;1.40;;
67063;SDS011;58476;48.072;11.970;2023-04-06T11:02:24;3.30;;;1.30;;
67063;SDS011;58476;48.072;11.970;2023-04-06T11:04:56;2.50;;;1.70;;
67063;SDS011;58476;48.072;11.970;2023-04-06T11:07:25;3.50;;;1.50;;
67063;SDS011;58476;48.072;11.970;2023-04-06T11:09:51;2.95;;;1.90;;
67063;SDS011;58476;48.072;11.970;2023-04-06T11:12:21;2.90;;;1.45;;
67063;SDS011;58476;48.072;11.970;2023-04-06T11:17:26;2.40;;;1.58;;
67063;SDS011;58476;48.072;11.970;2023-04-06T11:19:51;4.53;;;1.77;;
67063;SDS011;58476;48.072;11.970;2023-04-06T11:22:17;3.70;;;1.38;;
67063;SDS011;58476;48.072;11.970;2023-04-06T11:24:42;6.20;;;1.60;;
67063;SDS011;58476;48.072;11.970;2023-04-06T11:27:07;3.83;;;1.50;;
67063;SDS011;58476;48.072;11.970;2023-04-06T11:29:33;4.18;;;1.60;;
67063;SDS011;58476;48.072;11.970;2023-04-06T11:32:00;6.15;;;1.40;;
67063;SDS011;58476;48.072;11.970;2023-04-06T11:34:28;1.50;;;1.35;;
67063;SDS011;58476;48.072;11.970;2023-04-06T11:36:55;5.45;;;1.60;;
67063;SDS011;58476;48.072;11.970;2023-04-06T11:39:22;4.18;;;1.23;;
67063;SDS011;58476;48.072;11.970;2023-04-06T11:41:49;1.55;;;1.30;;
67063;SDS011;58476;48.072;11.970;2023-04-06T11:44:39;3.22;;;1.80;;
67063;SDS011;58476;48.072;11.970;2023-04-06T11:47:09;4.85;;;1.60;;
67063;SDS011;58476;48.072;11.970;2023-04-06T11:49:39;2.63;;;1.48;;
67063;SDS011;58476;48.072;11.970;2023-04-06T11:52:25;3.00;;;1.15;;
67063;SDS011;58476;48.072;11.970;2023-04-06T11:54:52;2.90;;;1.35;;
67063;SDS011;58476;48.072;11.970;2023-04-06T11:57:19;1.33;;;1.20;;
67063;SDS011;58476;48.072;11.970;2023-04-06T11:59:45;3.78;;;1.58;;
67063;SDS011;58476;48.072;11.970;2023-04-06T12:02:11;3.60;;;1.60;;
67063;SDS011;58476;48.072;11.970;2023-04-06T12:04:37;3.13;;;1.50;;
67063;SDS011;58476;48.072;11.970;2023-04-06T12:07:02;2.97;;;1.50;;
67063;SDS011;58476;48.072;11.970;2023-04-06T12:09:29;5.07;;;1.60;;
67063;SDS011;58476;48.072;11.970;2023-04-06T12:11:54;4.80;;;1.80;;
67063;SDS011;58476;48.072;11.970;2023-04-06T12:14:20;9.35;;;1.70;;
67063;SDS011;58476;48.072;11.970;2023-04-06T12:16:45;4.00;;;1.40;;
67063;SDS011;58476;48.072;11.970;2023-04-06T12:19:10;6.00;;;1.80;;
67063;SDS011;58476;48.072;11.970;2023-04-06T12:21:36;3.70;;;1.50;;
67063;SDS011;58476;48.072;11.970;2023-04-06T12:24:01;12.27;;;1.70;;
67063;SDS011;58476;48.072;11.970;2023-04-06T12:26:27;19.73;;;2.00;;
67063;SDS011;58476;48.072;11.970;2023-04-06T12:28:52;6.93;;;1.60;;
67063;SDS011;58476;48.072;11.970;2023-04-06T12:31:19;13.60;;;1.85;;
67063;SDS011;58476;48.072;11.970;2023-04-06T12:33:46;8.65;;;1.48;;
67063;SDS011;58476;48.072;11.970;2023-04-06T12:36:12;3.92;;;1.45;;
67063;SDS011;58476;48.072;11.970;2023-04-06T12:38:37;9.32;;;1.75;;
67063;SDS011;58476;48.072;11.970;2023-04-06T12:41:03;4.57;;;1.40;;
67063;SDS011;58476;48.072;11.970;2023-04-06T12:43:28;4.60;;;1.45;;
67063;SDS011;58476;48.072;11.970;2023-04-06T12:45:53;5.53;;;1.40;;
67063;SDS011;58476;48.072;11.970;2023-04-06T12:48:19;10.38;;;1.60;;
67063;SDS011;58476;48.072;11.970;2023-04-06T12:50:44;8.30;;;1.52;;
67063;SDS011;58476;48.072;11.970;2023-04-06T12:53:09;6.28;;;1.30;;
67063;SDS011;58476;48.072;11.970;2023-04-06T12:55:35;2.03;;;1.35;;
67063;SDS011;58476;48.072;11.970;2023-04-06T12:58:00;2.58;;;1.30;;
67063;SDS011;58476;48.072;11.970;2023-04-06T13:00:26;3.80;;;1.63;;
67063;SDS011;58476;48.072;11.970;2023-04-06T13:02:51;7.13;;;1.60;;
67063;SDS011;58476;48.072;11.970;2023-04-06T13:05:17;3.63;;;1.48;;
67063;SDS011;58476;48.072;11.970;2023-04-06T13:07:42;4.78;;;1.60;;
67063;SDS011;58476;48.072;11.970;2023-04-06T13:10:07;5.50;;;1.60;;
67063;SDS011;58476;48.072;11.970;2023-04-06T13:12:33;5.15;;;1.70;;
67063;SDS011;58476;48.072;11.970;2023-04-06T13:14:58;2.47;;;1.35;;
67063;SDS011;58476;48.072;11.970;2023-04-06T13:17:24;4.85;;;1.40;;
67063;SDS011;58476;48.072;11.970;2023-04-06T13:19:52;3.88;;;1.50;;
67063;SDS011;58476;48.072;11.970;2023-04-06T13:22:17;3.80;;;1.40;;
67063;SDS011;58476;48.072;11.970;2023-04-06T13:24:42;2.10;;;1.25;;
67063;SDS011;58476;48.072;11.970;2023-04-06T13:27:08;4.85;;;1.50;;
67063;SDS011;58476;48.072;11.970;2023-04-06T13:29:33;6.68;;;1.60;;
67063;SDS011;58476;48.072;11.970;2023-04-06T13:31:58;6.57;;;1.42;;
67063;SDS011;58476;48.072;11.970;2023-04-06T13:34:24;3.92;;;1.40;;
67063;SDS011;58476;48.072;11.970;2023-04-06T13:36:49;4.85;;;1.50;;
67063;SDS011;58476;48.072;11.970;2023-04-06T13:39:15;4.03;;;1.55;;
67063;SDS011;58476;48.072;11.970;2023-04-06T13:41:40;1.45;;;1.30;;
67063;SDS011;58476;48.072;11.970;2023-04-06T13:44:05;4.47;;;1.40;;
67063;SDS011;58476;48.072;11.970;2023-04-06T13:46:30;3.17;;;1.30;;
67063;SDS011;58476;48.072;11.970;2023-04-06T13:48:56;4.25;;;1.33;;
67063;SDS011;58476;48.072;11.970;2023-04-06T13:51:21;2.90;;;1.40;;
67063;SDS011;58476;48.072;11.970;2023-04-06T13:53:46;1.70;;;1.40;;
67063;SDS011;58476;48.072;11.970;2023-04-06T13:56:12;3.15;;;1.45;;
67063;SDS011;58476;48.072;11.970;2023-04-06T13:58:37;2.05;;;1.30;;
67063;SDS011;58476;48.072;11.970;2023-04-06T14:01:06;1.52;;;1.30;;
67063;SDS011;58476;48.072;11.970;2023-04-06T14:03:32;3.08;;;1.30;;
67063;SDS011;58476;48.072;11.970;2023-04-06T14:05:58;2.97;;;1.30;;
67063;SDS011;58476;48.072;11.970;2023-04-06T14:08:24;7.75;;;1.73;;
67063;SDS011;58476;48.072;11.970;2023-04-06T14:10:49;1.58;;;1.40;;
67063;SDS011;58476;48.072;11.970;2023-04-06T14:13:15;1.67;;;1.35;;
67063;SDS011;58476;48.072;11.970;2023-04-06T14:15:40;3.10;;;1.35;;
67063;SDS011;58476;48.072;11.970;2023-04-06T14:18:07;1.48;;;1.38;;
67063;SDS011;58476;48.072;11.970;2023-04-06T14:20:33;3.70;;;1.20;;
67063;SDS011;58476;48.072;11.970;2023-04-06T14:23:01;3.25;;;1.33;;
67063;SDS011;58476;48.072;11.970;2023-04-06T14:25:27;5.72;;;1.30;;
67063;SDS011;58476;48.072;11.970;2023-04-06T14:27:53;1.90;;;1.50;;
67063;SDS011;58476;48.072;11.970;2023-04-06T14:30:18;7.32;;;1.55;;
67063;SDS011;58476;48.072;11.970;2023-04-06T14:32:44;3.47;;;1.60;;
67063;SDS011;58476;48.072;11.970;2023-04-06T14:35:09;2.05;;;1.40;;
67063;SDS011;58476;48.072;11.970;2023-04-06T14:37:35;2.53;;;1.30;;
67063;SDS011;58476;48.072;11.970;2023-04-06T14:40:00;4.07;;;1.80;;